sensor_id;sensor_type;location;lat;lon;timestamp;temperature;humidity
20568;DHT22;10442;49.932;11.592;2022-08-02T00:00:38;21.40;64.20
20568;DHT22;10442;49.932;11.592;2022-08-02T00:03:06;21.40;64.70
20568;DHT22;10442;49.932;11.592;2022-08-02T00:05:33;21.40;64.60
20568;DHT22;10442;49.932;11.592;2022-08-02T00:08:01;21.40;64.60
20568;DHT22;10442;49.932;11.592;2022-08-02T00:10:29;21.30;64.40
20568;DHT22;10442;49.932;11.592;2022-08-02T00:12:57;21.30;65.00
20568;DHT22;10442;49.932;11.592;2022-08-02T00:15:25;21.30;64.90
20568;DHT22;10442;49.932;11.592;2022-08-02T00:17:52;21.30;64.90
20568;DHT22;10442;49.932;11.592;2022-08-02T00:20:20;21.20;64.80
20568;DHT22;10442;49.932;11.592;2022-08-02T00:22:48;21.20;64.80
20568;DHT22;10442;49.932;11.592;2022-08-02T00:25:15;21.10;64.90
20568;DHT22;10442;49.932;11.592;2022-08-02T00:27:43;21.10;65.30
20568;DHT22;10442;49.932;11.592;2022-08-02T00:30:11;21.00;65.70
20568;DHT22;10442;49.932;11.592;2022-08-02T00:32:38;21.00;66.00
20568;DHT22;10442;49.932;11.592;2022-08-02T00:35:06;21.00;65.90
20568;DHT22;10442;49.932;11.592;2022-08-02T00:37:38;20.90;65.90
20568;DHT22;10442;49.932;11.592;2022-08-02T00:40:07;20.90;66.00
20568;DHT22;10442;49.932;11.592;2022-08-02T00:42:35;20.80;65.90
20568;DHT22;10442;49.932;11.592;2022-08-02T00:45:03;20.80;66.20
20568;DHT22;10442;49.932;11.592;2022-08-02T00:47:30;20.80;66.30
20568;DHT22;10442;49.932;11.592;2022-08-02T00:49:57;20.70;66.10
20568;DHT22;10442;49.932;11.592;2022-08-02T00:52:25;20.70;66.10
20568;DHT22;10442;49.932;11.592;2022-08-02T00:54:52;20.60;66.00
20568;DHT22;10442;49.932;11.592;2022-08-02T00:57:19;20.60;66.10
20568;DHT22;10442;49.932;11.592;2022-08-02T00:59:47;20.50;66.40
20568;DHT22;10442;49.932;11.592;2022-08-02T01:02:15;20.50;66.50
20568;DHT22;10442;49.932;11.592;2022-08-02T01:04:44;20.50;66.30
20568;DHT22;10442;49.932;11.592;2022-08-02T01:07:11;20.40;66.40
20568;DHT22;10442;49.932;11.592;2022-08-02T01:09:41;20.40;66.70
20568;DHT22;10442;49.932;11.592;2022-08-02T01:12:09;20.40;67.00
20568;DHT22;10442;49.932;11.592;2022-08-02T01:14:38;20.30;67.00
20568;DHT22;10442;49.932;11.592;2022-08-02T01:17:22;20.30;67.10
20568;DHT22;10442;49.932;11.592;2022-08-02T01:23:08;20.20;67.30
20568;DHT22;10442;49.932;11.592;2022-08-02T01:30:43;20.10;67.80
20568;DHT22;10442;49.932;11.592;2022-08-02T01:33:16;20.10;67.70
20568;DHT22;10442;49.932;11.592;2022-08-02T01:35:48;20.00;67.70
20568;DHT22;10442;49.932;11.592;2022-08-02T01:38:32;20.00;68.00
20568;DHT22;10442;49.932;11.592;2022-08-02T01:41:01;20.00;68.00
20568;DHT22;10442;49.932;11.592;2022-08-02T01:43:33;19.90;67.70
20568;DHT22;10442;49.932;11.592;2022-08-02T01:46:03;19.90;67.60
20568;DHT22;10442;49.932;11.592;2022-08-02T01:48:33;19.90;67.60
20568;DHT22;10442;49.932;11.592;2022-08-02T01:51:02;19.90;67.60
20568;DHT22;10442;49.932;11.592;2022-08-02T01:53:30;19.80;67.60
20568;DHT22;10442;49.932;11.592;2022-08-02T01:55:59;19.80;67.80
20568;DHT22;10442;49.932;11.592;2022-08-02T01:58:30;19.80;67.90
20568;DHT22;10442;49.932;11.592;2022-08-02T02:00:58;19.80;68.20
20568;DHT22;10442;49.932;11.592;2022-08-02T02:03:28;19.70;68.10
20568;DHT22;10442;49.932;11.592;2022-08-02T02:05:57;19.70;68.20
20568;DHT22;10442;49.932;11.592;2022-08-02T02:08:34;19.70;68.60
20568;DHT22;10442;49.932;11.592;2022-08-02T02:11:02;19.70;68.90
20568;DHT22;10442;49.932;11.592;2022-08-02T02:13:50;19.60;68.70
20568;DHT22;10442;49.932;11.592;2022-08-02T02:16:19;19.60;68.70
20568;DHT22;10442;49.932;11.592;2022-08-02T02:18:48;19.60;68.70
20568;DHT22;10442;49.932;11.592;2022-08-02T02:21:16;19.60;68.80
20568;DHT22;10442;49.932;11.592;2022-08-02T02:23:44;19.60;68.70
20568;DHT22;10442;49.932;11.592;2022-08-02T02:26:15;19.50;68.80
20568;DHT22;10442;49.932;11.592;2022-08-02T02:28:54;19.50;69.50
20568;DHT22;10442;49.932;11.592;2022-08-02T02:31:24;19.50;69.40
20568;DHT22;10442;49.932;11.592;2022-08-02T02:33:59;19.50;69.40
20568;DHT22;10442;49.932;11.592;2022-08-02T02:36:28;19.50;69.40
20568;DHT22;10442;49.932;11.592;2022-08-02T02:39:00;19.50;69.20
20568;DHT22;10442;49.932;11.592;2022-08-02T02:41:28;19.50;69.30
20568;DHT22;10442;49.932;11.592;2022-08-02T02:43:59;19.50;69.50
20568;DHT22;10442;49.932;11.592;2022-08-02T02:46:31;19.50;69.50
20568;DHT22;10442;49.932;11.592;2022-08-02T02:49:00;19.50;69.60
20568;DHT22;10442;49.932;11.592;2022-08-02T02:51:28;19.50;69.60
20568;DHT22;10442;49.932;11.592;2022-08-02T02:53:57;19.40;69.60
20568;DHT22;10442;49.932;11.592;2022-08-02T02:56:44;19.40;69.60
20568;DHT22;10442;49.932;11.592;2022-08-02T02:59:13;19.40;69.40
20568;DHT22;10442;49.932;11.592;2022-08-02T03:01:41;19.40;69.40
20568;DHT22;10442;49.932;11.592;2022-08-02T03:04:26;19.40;69.50
20568;DHT22;10442;49.932;11.592;2022-08-02T03:07:14;19.40;69.70
20568;DHT22;10442;49.932;11.592;2022-08-02T03:09:42;19.30;69.50
20568;DHT22;10442;49.932;11.592;2022-08-02T03:12:10;19.30;69.50
20568;DHT22;10442;49.932;11.592;2022-08-02T03:14:42;19.30;69.50
20568;DHT22;10442;49.932;11.592;2022-08-02T03:17:10;19.30;69.60
20568;DHT22;10442;49.932;11.592;2022-08-02T03:19:38;19.20;69.70
20568;DHT22;10442;49.932;11.592;2022-08-02T03:22:05;19.20;69.60
20568;DHT22;10442;49.932;11.592;2022-08-02T03:24:33;19.20;69.80
20568;DHT22;10442;49.932;11.592;2022-08-02T03:27:01;19.10;69.90
20568;DHT22;10442;49.932;11.592;2022-08-02T03:29:29;19.10;70.10
20568;DHT22;10442;49.932;11.592;2022-08-02T03:32:01;19.10;70.20
20568;DHT22;10442;49.932;11.592;2022-08-02T03:34:28;19.10;70.30
20568;DHT22;10442;49.932;11.592;2022-08-02T03:36:56;19.10;70.30
20568;DHT22;10442;49.932;11.592;2022-08-02T03:39:24;19.10;70.30
20568;DHT22;10442;49.932;11.592;2022-08-02T03:41:53;19.10;70.10
20568;DHT22;10442;49.932;11.592;2022-08-02T03:44:22;19.10;70.20
20568;DHT22;10442;49.932;11.592;2022-08-02T03:46:50;19.10;70.20
20568;DHT22;10442;49.932;11.592;2022-08-02T03:49:19;19.10;70.10
20568;DHT22;10442;49.932;11.592;2022-08-02T03:51:47;19.00;70.40
20568;DHT22;10442;49.932;11.592;2022-08-02T03:54:16;19.00;70.40
20568;DHT22;10442;49.932;11.592;2022-08-02T03:56:45;19.00;70.50
20568;DHT22;10442;49.932;11.592;2022-08-02T03:59:13;19.00;70.50
20568;DHT22;10442;49.932;11.592;2022-08-02T04:01:41;19.00;70.60
20568;DHT22;10442;49.932;11.592;2022-08-02T04:04:09;19.00;70.70
20568;DHT22;10442;49.932;11.592;2022-08-02T04:06:37;19.00;70.60
20568;DHT22;10442;49.932;11.592;2022-08-02T04:09:08;19.00;70.70
20568;DHT22;10442;49.932;11.592;2022-08-02T04:11:36;18.90;70.80
20568;DHT22;10442;49.932;11.592;2022-08-02T04:14:07;19.00;71.20
20568;DHT22;10442;49.932;11.592;2022-08-02T04:16:44;18.90;71.50
20568;DHT22;10442;49.932;11.592;2022-08-02T04:19:36;18.90;71.50
20568;DHT22;10442;49.932;11.592;2022-08-02T04:22:07;19.00;71.60
20568;DHT22;10442;49.932;11.592;2022-08-02T04:24:41;19.00;71.60
20568;DHT22;10442;49.932;11.592;2022-08-02T04:27:12;19.00;71.60
20568;DHT22;10442;49.932;11.592;2022-08-02T04:30:00;19.00;71.60
20568;DHT22;10442;49.932;11.592;2022-08-02T04:32:30;19.10;71.80
20568;DHT22;10442;49.932;11.592;2022-08-02T04:34:58;19.10;72.00
20568;DHT22;10442;49.932;11.592;2022-08-02T04:37:47;19.20;71.80
20568;DHT22;10442;49.932;11.592;2022-08-02T04:40:35;19.30;72.00
20568;DHT22;10442;49.932;11.592;2022-08-02T04:43:03;19.30;72.10
20568;DHT22;10442;49.932;11.592;2022-08-02T04:45:31;19.40;72.40
20568;DHT22;10442;49.932;11.592;2022-08-02T04:47:59;19.50;72.80
20568;DHT22;10442;49.932;11.592;2022-08-02T04:50:32;19.80;73.20
20568;DHT22;10442;49.932;11.592;2022-08-02T04:53:00;19.90;73.30
20568;DHT22;10442;49.932;11.592;2022-08-02T04:55:28;20.20;73.10
20568;DHT22;10442;49.932;11.592;2022-08-02T04:57:58;20.50;72.40
20568;DHT22;10442;49.932;11.592;2022-08-02T05:00:27;20.90;71.90
20568;DHT22;10442;49.932;11.592;2022-08-02T05:02:56;21.30;71.20
20568;DHT22;10442;49.932;11.592;2022-08-02T05:05:24;21.80;70.80
20568;DHT22;10442;49.932;11.592;2022-08-02T05:07:52;22.30;70.40
20568;DHT22;10442;49.932;11.592;2022-08-02T05:10:20;22.80;69.10
20568;DHT22;10442;49.932;11.592;2022-08-02T05:12:48;23.30;66.90
20568;DHT22;10442;49.932;11.592;2022-08-02T05:15:16;23.90;66.10
20568;DHT22;10442;49.932;11.592;2022-08-02T05:17:45;24.40;65.00
20568;DHT22;10442;49.932;11.592;2022-08-02T05:20:16;25.00;63.60
20568;DHT22;10442;49.932;11.592;2022-08-02T05:22:44;25.50;61.70
20568;DHT22;10442;49.932;11.592;2022-08-02T05:25:12;26.00;61.20
20568;DHT22;10442;49.932;11.592;2022-08-02T05:27:40;26.50;60.10
20568;DHT22;10442;49.932;11.592;2022-08-02T05:30:08;26.90;58.70
20568;DHT22;10442;49.932;11.592;2022-08-02T05:32:47;27.40;57.90
20568;DHT22;10442;49.932;11.592;2022-08-02T05:35:21;27.90;56.10
20568;DHT22;10442;49.932;11.592;2022-08-02T05:37:50;28.40;55.60
20568;DHT22;10442;49.932;11.592;2022-08-02T05:40:18;28.80;55.20
20568;DHT22;10442;49.932;11.592;2022-08-02T05:42:53;29.20;54.10
20568;DHT22;10442;49.932;11.592;2022-08-02T05:45:22;29.60;53.20
20568;DHT22;10442;49.932;11.592;2022-08-02T05:47:50;29.90;52.40
20568;DHT22;10442;49.932;11.592;2022-08-02T05:50:18;30.20;52.00
20568;DHT22;10442;49.932;11.592;2022-08-02T05:53:27;30.40;51.20
20568;DHT22;10442;49.932;11.592;2022-08-02T05:59:03;31.00;50.10
20568;DHT22;10442;49.932;11.592;2022-08-02T06:01:36;31.30;49.10
20568;DHT22;10442;49.932;11.592;2022-08-02T06:04:07;31.60;48.20
20568;DHT22;10442;49.932;11.592;2022-08-02T06:06:35;31.90;48.60
20568;DHT22;10442;49.932;11.592;2022-08-02T06:09:09;32.10;47.30
20568;DHT22;10442;49.932;11.592;2022-08-02T06:11:44;32.30;46.60
20568;DHT22;10442;49.932;11.592;2022-08-02T06:14:32;32.40;46.00
20568;DHT22;10442;49.932;11.592;2022-08-02T06:17:03;32.60;45.90
20568;DHT22;10442;49.932;11.592;2022-08-02T06:19:32;32.70;45.40
20568;DHT22;10442;49.932;11.592;2022-08-02T06:22:19;32.70;45.40
20568;DHT22;10442;49.932;11.592;2022-08-02T06:25:07;32.90;45.30
20568;DHT22;10442;49.932;11.592;2022-08-02T06:27:54;33.00;45.10
20568;DHT22;10442;49.932;11.592;2022-08-02T06:30:23;33.20;45.00
20568;DHT22;10442;49.932;11.592;2022-08-02T06:32:51;33.40;44.40
20568;DHT22;10442;49.932;11.592;2022-08-02T06:35:19;33.60;43.90
20568;DHT22;10442;49.932;11.592;2022-08-02T06:37:49;33.90;43.60
20568;DHT22;10442;49.932;11.592;2022-08-02T06:45:33;34.70;41.90
20568;DHT22;10442;49.932;11.592;2022-08-02T06:48:00;34.80;41.50
20568;DHT22;10442;49.932;11.592;2022-08-02T06:50:29;35.00;41.20
20568;DHT22;10442;49.932;11.592;2022-08-02T06:52:56;35.00;41.20
20568;DHT22;10442;49.932;11.592;2022-08-02T06:55:24;35.10;41.00
20568;DHT22;10442;49.932;11.592;2022-08-02T06:57:51;35.10;41.10
20568;DHT22;10442;49.932;11.592;2022-08-02T07:00:20;35.10;40.90
20568;DHT22;10442;49.932;11.592;2022-08-02T07:02:48;35.20;40.80
20568;DHT22;10442;49.932;11.592;2022-08-02T07:05:16;35.30;40.40
20568;DHT22;10442;49.932;11.592;2022-08-02T07:07:45;35.30;40.30
20568;DHT22;10442;49.932;11.592;2022-08-02T07:10:14;35.40;40.20
20568;DHT22;10442;49.932;11.592;2022-08-02T07:12:43;35.50;40.20
20568;DHT22;10442;49.932;11.592;2022-08-02T07:15:10;35.60;39.80
20568;DHT22;10442;49.932;11.592;2022-08-02T07:17:39;35.80;39.60
20568;DHT22;10442;49.932;11.592;2022-08-02T07:20:07;35.90;39.00
20568;DHT22;10442;49.932;11.592;2022-08-02T07:22:36;36.10;39.10
20568;DHT22;10442;49.932;11.592;2022-08-02T07:25:04;36.20;39.40
20568;DHT22;10442;49.932;11.592;2022-08-02T07:27:32;36.50;38.90
20568;DHT22;10442;49.932;11.592;2022-08-02T07:30:00;36.70;38.00
20568;DHT22;10442;49.932;11.592;2022-08-02T07:32:29;37.00;37.30
20568;DHT22;10442;49.932;11.592;2022-08-02T07:34:59;37.10;36.30
20568;DHT22;10442;49.932;11.592;2022-08-02T07:37:34;37.30;36.70
20568;DHT22;10442;49.932;11.592;2022-08-02T07:40:22;37.50;36.50
20568;DHT22;10442;49.932;11.592;2022-08-02T07:42:52;37.60;36.10
20568;DHT22;10442;49.932;11.592;2022-08-02T07:45:24;37.80;36.10
20568;DHT22;10442;49.932;11.592;2022-08-02T07:47:52;38.00;36.00
20568;DHT22;10442;49.932;11.592;2022-08-02T07:50:20;38.20;35.50
20568;DHT22;10442;49.932;11.592;2022-08-02T07:52:48;38.50;35.10
20568;DHT22;10442;49.932;11.592;2022-08-02T07:55:24;38.60;34.00
20568;DHT22;10442;49.932;11.592;2022-08-02T07:58:08;38.80;33.80
20568;DHT22;10442;49.932;11.592;2022-08-02T08:00:40;38.90;33.80
20568;DHT22;10442;49.932;11.592;2022-08-02T08:03:08;39.00;33.60
20568;DHT22;10442;49.932;11.592;2022-08-02T08:05:36;39.20;33.20
20568;DHT22;10442;49.932;11.592;2022-08-02T08:08:04;39.30;33.20
20568;DHT22;10442;49.932;11.592;2022-08-02T08:10:32;39.50;32.90
20568;DHT22;10442;49.932;11.592;2022-08-02T08:13:00;39.80;32.90
20568;DHT22;10442;49.932;11.592;2022-08-02T08:15:28;39.90;32.30
20568;DHT22;10442;49.932;11.592;2022-08-02T08:17:55;40.20;32.20
20568;DHT22;10442;49.932;11.592;2022-08-02T08:20:23;40.40;31.60
20568;DHT22;10442;49.932;11.592;2022-08-02T08:22:51;40.60;31.40
20568;DHT22;10442;49.932;11.592;2022-08-02T08:25:19;40.80;31.00
20568;DHT22;10442;49.932;11.592;2022-08-02T08:27:50;40.90;30.50
20568;DHT22;10442;49.932;11.592;2022-08-02T08:30:19;41.00;30.50
20568;DHT22;10442;49.932;11.592;2022-08-02T08:32:48;41.10;30.50
20568;DHT22;10442;49.932;11.592;2022-08-02T08:35:16;41.20;30.60
20568;DHT22;10442;49.932;11.592;2022-08-02T08:37:44;41.30;30.30
20568;DHT22;10442;49.932;11.592;2022-08-02T08:40:12;41.50;29.90
20568;DHT22;10442;49.932;11.592;2022-08-02T08:42:45;41.50;29.40
20568;DHT22;10442;49.932;11.592;2022-08-02T08:45:13;41.60;29.50
20568;DHT22;10442;49.932;11.592;2022-08-02T08:47:42;41.60;29.60
20568;DHT22;10442;49.932;11.592;2022-08-02T08:50:16;41.60;29.40
20568;DHT22;10442;49.932;11.592;2022-08-02T08:53:07;41.30;29.30
20568;DHT22;10442;49.932;11.592;2022-08-02T08:55:39;40.80;29.70
20568;DHT22;10442;49.932;11.592;2022-08-02T08:58:06;40.20;29.70
20568;DHT22;10442;49.932;11.592;2022-08-02T09:00:35;39.60;30.00
20568;DHT22;10442;49.932;11.592;2022-08-02T09:03:04;39.00;30.70
20568;DHT22;10442;49.932;11.592;2022-08-02T09:05:35;38.30;31.50
20568;DHT22;10442;49.932;11.592;2022-08-02T09:08:02;37.60;32.30
20568;DHT22;10442;49.932;11.592;2022-08-02T09:13:13;36.70;33.00
20568;DHT22;10442;49.932;11.592;2022-08-02T09:16:04;36.30;33.80
20568;DHT22;10442;49.932;11.592;2022-08-02T09:18:44;36.10;33.80
20568;DHT22;10442;49.932;11.592;2022-08-02T09:21:14;36.00;34.70
20568;DHT22;10442;49.932;11.592;2022-08-02T09:23:45;36.20;34.70
20568;DHT22;10442;49.932;11.592;2022-08-02T09:26:21;36.30;34.20
20568;DHT22;10442;49.932;11.592;2022-08-02T09:28:50;36.40;33.80
20568;DHT22;10442;49.932;11.592;2022-08-02T09:31:20;36.40;34.00
20568;DHT22;10442;49.932;11.592;2022-08-02T09:33:59;36.30;34.20
20568;DHT22;10442;49.932;11.592;2022-08-02T09:36:35;36.10;34.10
20568;DHT22;10442;49.932;11.592;2022-08-02T09:39:05;36.00;34.10
20568;DHT22;10442;49.932;11.592;2022-08-02T09:41:36;35.70;34.20
20568;DHT22;10442;49.932;11.592;2022-08-02T09:44:04;35.50;35.00
20568;DHT22;10442;49.932;11.592;2022-08-02T09:46:41;35.40;35.30
20568;DHT22;10442;49.932;11.592;2022-08-02T09:49:14;35.40;35.00
20568;DHT22;10442;49.932;11.592;2022-08-02T09:51:51;35.40;35.20
20568;DHT22;10442;49.932;11.592;2022-08-02T09:54:25;35.60;35.00
20568;DHT22;10442;49.932;11.592;2022-08-02T09:56:55;35.70;34.60
20568;DHT22;10442;49.932;11.592;2022-08-02T09:59:24;35.80;34.00
20568;DHT22;10442;49.932;11.592;2022-08-02T10:01:53;35.70;33.70
20568;DHT22;10442;49.932;11.592;2022-08-02T10:04:41;35.60;34.20
20568;DHT22;10442;49.932;11.592;2022-08-02T10:07:20;35.40;33.30
20568;DHT22;10442;49.932;11.592;2022-08-02T10:09:50;35.30;33.40
20568;DHT22;10442;49.932;11.592;2022-08-02T10:12:19;35.20;33.50
20568;DHT22;10442;49.932;11.592;2022-08-02T10:14:49;35.10;33.30
20568;DHT22;10442;49.932;11.592;2022-08-02T10:17:19;35.00;33.50
20568;DHT22;10442;49.932;11.592;2022-08-02T10:19:47;35.00;33.80
20568;DHT22;10442;49.932;11.592;2022-08-02T10:22:32;34.90;33.90
20568;DHT22;10442;49.932;11.592;2022-08-02T10:25:02;34.90;33.70
20568;DHT22;10442;49.932;11.592;2022-08-02T10:27:31;34.80;33.90
20568;DHT22;10442;49.932;11.592;2022-08-02T10:30:20;34.80;34.40
20568;DHT22;10442;49.932;11.592;2022-08-02T10:32:50;34.80;33.80
20568;DHT22;10442;49.932;11.592;2022-08-02T10:35:21;34.70;33.80
20568;DHT22;10442;49.932;11.592;2022-08-02T10:37:59;34.70;33.60
20568;DHT22;10442;49.932;11.592;2022-08-02T10:40:44;34.60;34.00
20568;DHT22;10442;49.932;11.592;2022-08-02T10:43:38;34.50;34.20
20568;DHT22;10442;49.932;11.592;2022-08-02T10:46:29;34.40;34.50
20568;DHT22;10442;49.932;11.592;2022-08-02T10:49:16;34.20;34.90
20568;DHT22;10442;49.932;11.592;2022-08-02T10:52:06;34.10;35.00
20568;DHT22;10442;49.932;11.592;2022-08-02T10:54:38;34.00;34.70
20568;DHT22;10442;49.932;11.592;2022-08-02T10:57:30;34.00;34.80
20568;DHT22;10442;49.932;11.592;2022-08-02T11:00:08;34.00;35.00
20568;DHT22;10442;49.932;11.592;2022-08-02T11:02:41;34.10;34.70
20568;DHT22;10442;49.932;11.592;2022-08-02T11:05:10;34.10;34.70
20568;DHT22;10442;49.932;11.592;2022-08-02T11:07:47;34.10;34.30
20568;DHT22;10442;49.932;11.592;2022-08-02T11:13:10;34.00;35.80
20568;DHT22;10442;49.932;11.592;2022-08-02T11:16:03;34.00;34.90
20568;DHT22;10442;49.932;11.592;2022-08-02T11:23:50;33.90;34.80
20568;DHT22;10442;49.932;11.592;2022-08-02T11:29:00;33.80;33.90
20568;DHT22;10442;49.932;11.592;2022-08-02T11:31:29;33.70;34.40
20568;DHT22;10442;49.932;11.592;2022-08-02T11:34:05;33.60;34.10
20568;DHT22;10442;49.932;11.592;2022-08-02T11:37:02;33.60;34.80
20568;DHT22;10442;49.932;11.592;2022-08-02T11:39:29;33.60;35.60
20568;DHT22;10442;49.932;11.592;2022-08-02T11:41:59;33.70;34.50
20568;DHT22;10442;49.932;11.592;2022-08-02T11:44:28;33.80;34.30
20568;DHT22;10442;49.932;11.592;2022-08-02T11:46:58;33.90;33.40
20568;DHT22;10442;49.932;11.592;2022-08-02T11:49:27;34.00;33.30
20568;DHT22;10442;49.932;11.592;2022-08-02T11:51:56;34.10;33.60
20568;DHT22;10442;49.932;11.592;2022-08-02T11:54:29;34.30;33.40
20568;DHT22;10442;49.932;11.592;2022-08-02T11:57:17;34.40;33.60
20568;DHT22;10442;49.932;11.592;2022-08-02T11:59:51;34.40;33.20
20568;DHT22;10442;49.932;11.592;2022-08-02T12:02:27;34.50;33.30
20568;DHT22;10442;49.932;11.592;2022-08-02T12:04:58;34.50;33.30
20568;DHT22;10442;49.932;11.592;2022-08-02T12:10:11;34.60;33.00
20568;DHT22;10442;49.932;11.592;2022-08-02T12:12:52;34.60;32.20
20568;DHT22;10442;49.932;11.592;2022-08-02T12:15:41;34.60;32.30
20568;DHT22;10442;49.932;11.592;2022-08-02T12:18:30;34.60;32.40
20568;DHT22;10442;49.932;11.592;2022-08-02T12:21:24;34.60;31.90
20568;DHT22;10442;49.932;11.592;2022-08-02T12:23:52;34.60;32.20
20568;DHT22;10442;49.932;11.592;2022-08-02T12:26:28;34.60;32.50
20568;DHT22;10442;49.932;11.592;2022-08-02T12:28:57;34.60;31.90
20568;DHT22;10442;49.932;11.592;2022-08-02T12:31:40;34.60;31.90
20568;DHT22;10442;49.932;11.592;2022-08-02T12:34:26;34.50;32.00
20568;DHT22;10442;49.932;11.592;2022-08-02T12:37:07;34.50;32.50
20568;DHT22;10442;49.932;11.592;2022-08-02T12:42:11;34.50;32.50
20568;DHT22;10442;49.932;11.592;2022-08-02T12:45:11;34.50;32.40
20568;DHT22;10442;49.932;11.592;2022-08-02T12:47:46;34.50;32.40
20568;DHT22;10442;49.932;11.592;2022-08-02T12:50:22;34.60;31.70
20568;DHT22;10442;49.932;11.592;2022-08-02T12:53:05;34.60;32.20
20568;DHT22;10442;49.932;11.592;2022-08-02T12:55:34;34.70;31.80
20568;DHT22;10442;49.932;11.592;2022-08-02T12:58:24;34.70;31.30
20568;DHT22;10442;49.932;11.592;2022-08-02T13:00:54;34.80;31.60
20568;DHT22;10442;49.932;11.592;2022-08-02T13:03:22;34.80;31.40
20568;DHT22;10442;49.932;11.592;2022-08-02T13:06:10;34.80;30.60
20568;DHT22;10442;49.932;11.592;2022-08-02T13:08:58;34.80;30.00
20568;DHT22;10442;49.932;11.592;2022-08-02T13:11:26;34.70;30.30
20568;DHT22;10442;49.932;11.592;2022-08-02T13:13:54;34.60;29.90
20568;DHT22;10442;49.932;11.592;2022-08-02T13:16:22;34.60;30.20
20568;DHT22;10442;49.932;11.592;2022-08-02T13:18:58;34.50;29.90
20568;DHT22;10442;49.932;11.592;2022-08-02T13:21:26;34.50;29.70
20568;DHT22;10442;49.932;11.592;2022-08-02T13:24:14;34.50;29.80
20568;DHT22;10442;49.932;11.592;2022-08-02T13:27:02;34.40;29.70
20568;DHT22;10442;49.932;11.592;2022-08-02T13:29:37;34.50;30.00
20568;DHT22;10442;49.932;11.592;2022-08-02T13:32:05;34.50;30.10
20568;DHT22;10442;49.932;11.592;2022-08-02T13:34:34;34.50;30.00
20568;DHT22;10442;49.932;11.592;2022-08-02T13:37:02;34.50;30.00
20568;DHT22;10442;49.932;11.592;2022-08-02T13:39:30;34.60;30.00
20568;DHT22;10442;49.932;11.592;2022-08-02T13:41:58;34.60;29.70
20568;DHT22;10442;49.932;11.592;2022-08-02T13:44:26;34.60;29.50
20568;DHT22;10442;49.932;11.592;2022-08-02T13:46:54;34.60;29.60
20568;DHT22;10442;49.932;11.592;2022-08-02T13:49:21;34.60;29.80
20568;DHT22;10442;49.932;11.592;2022-08-02T13:52:09;34.60;29.80
20568;DHT22;10442;49.932;11.592;2022-08-02T13:54:38;34.50;29.50
20568;DHT22;10442;49.932;11.592;2022-08-02T13:57:05;34.50;29.70
20568;DHT22;10442;49.932;11.592;2022-08-02T13:59:33;34.50;29.80
20568;DHT22;10442;49.932;11.592;2022-08-02T14:02:21;34.50;29.90
20568;DHT22;10442;49.932;11.592;2022-08-02T14:04:49;34.40;30.10
20568;DHT22;10442;49.932;11.592;2022-08-02T14:07:17;34.40;30.00
20568;DHT22;10442;49.932;11.592;2022-08-02T14:09:44;34.40;30.00
20568;DHT22;10442;49.932;11.592;2022-08-02T14:12:12;34.50;30.00
20568;DHT22;10442;49.932;11.592;2022-08-02T14:14:41;34.50;29.80
20568;DHT22;10442;49.932;11.592;2022-08-02T14:17:08;34.50;29.90
20568;DHT22;10442;49.932;11.592;2022-08-02T14:19:37;34.40;29.80
20568;DHT22;10442;49.932;11.592;2022-08-02T14:22:06;34.40;29.70
20568;DHT22;10442;49.932;11.592;2022-08-02T14:24:48;34.40;29.70
20568;DHT22;10442;49.932;11.592;2022-08-02T14:27:15;34.40;29.60
20568;DHT22;10442;49.932;11.592;2022-08-02T14:29:43;34.40;30.10
20568;DHT22;10442;49.932;11.592;2022-08-02T14:32:10;34.30;29.90
20568;DHT22;10442;49.932;11.592;2022-08-02T14:34:39;34.30;30.10
20568;DHT22;10442;49.932;11.592;2022-08-02T14:37:06;34.30;30.30
20568;DHT22;10442;49.932;11.592;2022-08-02T14:39:34;34.30;29.80
20568;DHT22;10442;49.932;11.592;2022-08-02T14:42:22;34.30;29.70
20568;DHT22;10442;49.932;11.592;2022-08-02T14:44:49;34.30;29.70
20568;DHT22;10442;49.932;11.592;2022-08-02T14:47:17;34.30;29.80
20568;DHT22;10442;49.932;11.592;2022-08-02T14:49:45;34.30;29.90
20568;DHT22;10442;49.932;11.592;2022-08-02T14:52:17;34.30;29.90
20568;DHT22;10442;49.932;11.592;2022-08-02T14:54:45;34.20;29.90
20568;DHT22;10442;49.932;11.592;2022-08-02T14:57:14;34.20;29.70
20568;DHT22;10442;49.932;11.592;2022-08-02T14:59:42;34.20;29.70
20568;DHT22;10442;49.932;11.592;2022-08-02T15:02:09;34.20;29.60
20568;DHT22;10442;49.932;11.592;2022-08-02T15:04:40;34.10;29.60
20568;DHT22;10442;49.932;11.592;2022-08-02T15:07:11;34.10;29.50
20568;DHT22;10442;49.932;11.592;2022-08-02T15:09:38;34.00;29.50
20568;DHT22;10442;49.932;11.592;2022-08-02T15:12:08;34.00;30.00
20568;DHT22;10442;49.932;11.592;2022-08-02T15:14:38;34.00;30.00
20568;DHT22;10442;49.932;11.592;2022-08-02T15:17:06;34.00;29.90
20568;DHT22;10442;49.932;11.592;2022-08-02T15:19:34;33.90;30.00
20568;DHT22;10442;49.932;11.592;2022-08-02T15:22:21;33.90;30.60
20568;DHT22;10442;49.932;11.592;2022-08-02T15:24:49;33.80;29.90
20568;DHT22;10442;49.932;11.592;2022-08-02T15:27:16;33.80;29.90
20568;DHT22;10442;49.932;11.592;2022-08-02T15:29:45;33.80;30.00
20568;DHT22;10442;49.932;11.592;2022-08-02T15:32:15;33.80;30.20
20568;DHT22;10442;49.932;11.592;2022-08-02T15:34:46;33.80;30.10
20568;DHT22;10442;49.932;11.592;2022-08-02T15:37:14;33.80;30.20
20568;DHT22;10442;49.932;11.592;2022-08-02T15:39:42;33.80;30.20
20568;DHT22;10442;49.932;11.592;2022-08-02T15:42:09;33.80;29.90
20568;DHT22;10442;49.932;11.592;2022-08-02T15:44:38;33.80;30.10
20568;DHT22;10442;49.932;11.592;2022-08-02T15:47:06;33.80;30.20
20568;DHT22;10442;49.932;11.592;2022-08-02T15:49:34;33.80;30.00
20568;DHT22;10442;49.932;11.592;2022-08-02T15:52:07;33.80;30.30
20568;DHT22;10442;49.932;11.592;2022-08-02T15:54:36;33.80;30.40
20568;DHT22;10442;49.932;11.592;2022-08-02T15:57:03;33.80;30.40
20568;DHT22;10442;49.932;11.592;2022-08-02T15:59:31;33.70;30.30
20568;DHT22;10442;49.932;11.592;2022-08-02T16:01:59;33.70;30.20
20568;DHT22;10442;49.932;11.592;2022-08-02T16:04:26;33.60;30.10
20568;DHT22;10442;49.932;11.592;2022-08-02T16:06:54;33.50;30.00
20568;DHT22;10442;49.932;11.592;2022-08-02T16:09:21;33.40;30.00
20568;DHT22;10442;49.932;11.592;2022-08-02T16:11:49;33.30;30.20
20568;DHT22;10442;49.932;11.592;2022-08-02T16:14:16;33.30;30.20
20568;DHT22;10442;49.932;11.592;2022-08-02T16:16:44;33.20;30.30
20568;DHT22;10442;49.932;11.592;2022-08-02T16:19:11;33.20;30.40